createdAt,value
2023-03-06T00:00:23.928Z,75.00
2023-03-06T00:03:13.444Z,64.25
2023-03-06T00:05:42.921Z,61.50
2023-03-06T00:08:13.220Z,55.00
2023-03-06T00:10:41.918Z,60.00
2023-03-06T00:13:13.821Z,61.67
2023-03-06T00:15:42.518Z,62.00
2023-03-06T00:18:11.748Z,61.67
2023-03-06T00:20:42.299Z,59.00
2023-03-06T00:23:15.120Z,60.00
2023-03-06T00:25:45.136Z,62.00
2023-03-06T00:28:15.866Z,56.75
2023-03-06T00:30:46.098Z,56.25
2023-03-06T00:33:14.806Z,59.00
2023-03-06T00:35:44.204Z,66.25
2023-03-06T00:38:15.245Z,73.25
2023-03-06T00:40:44.601Z,82.00
2023-03-06T00:43:13.330Z,79.25
2023-03-06T00:45:43.983Z,74.75
2023-03-06T00:48:12.538Z,83.25
2023-03-06T00:50:41.665Z,78.00
2023-03-06T00:53:13.305Z,87.50
2023-03-06T00:55:46.910Z,89.00
2023-03-06T00:58:15.578Z,79.50
2023-03-06T01:00:44.477Z,84.50
2023-03-06T01:03:13.067Z,77.25
2023-03-06T01:05:42.278Z,71.75
2023-03-06T01:08:10.800Z,82.25
2023-03-06T01:10:40.918Z,74.25
2023-03-06T01:13:12.323Z,71.25
2023-03-06T01:15:41.207Z,58.00
2023-03-06T01:18:09.734Z,80.50
2023-03-06T01:20:38.781Z,73.00
2023-03-06T01:23:07.479Z,77.00
2023-03-06T01:25:36.450Z,79.00
2023-03-06T01:28:05.088Z,77.25
2023-03-06T01:30:35.373Z,81.75
2023-03-06T01:33:04.031Z,78.00
2023-03-06T01:35:32.967Z,82.25
2023-03-06T01:38:01.655Z,70.00
2023-03-06T01:40:32.484Z,65.67
2023-03-06T01:43:10.824Z,58.50
2023-03-06T01:46:17.187Z,53.50
2023-03-06T01:48:49.340Z,47.25
2023-03-06T01:51:18.568Z,47.00
2023-03-06T01:53:48.307Z,44.25
2023-03-06T01:56:17.548Z,39.25
2023-03-06T01:58:46.762Z,39.25
2023-03-06T02:01:17.025Z,37.50
2023-03-06T02:03:49.879Z,39.25
2023-03-06T02:06:21.822Z,32.00
2023-03-06T02:08:52.984Z,34.75
2023-03-06T02:11:23.721Z,33.00
2023-03-06T02:13:54.816Z,34.50
2023-03-06T02:16:28.894Z,33.25
2023-03-06T02:19:01.990Z,28.00
2023-03-06T02:21:35.593Z,34.25
2023-03-06T02:24:22.217Z,30.50
2023-03-06T02:26:54.651Z,36.00
2023-03-06T02:29:27.261Z,32.25
2023-03-06T02:31:58.210Z,35.25
2023-03-06T02:34:55.657Z,32.00
2023-03-06T02:37:26.634Z,32.75
2023-03-06T02:40:08.181Z,28.50
2023-03-06T02:42:38.555Z,38.50
2023-03-06T02:45:11.892Z,32.25
2023-03-06T02:47:41.121Z,32.75
2023-03-06T02:50:10.661Z,37.75
2023-03-06T02:52:39.585Z,32.75
2023-03-06T02:55:09.355Z,34.00
2023-03-06T02:57:39.625Z,29.75
2023-03-06T03:00:09.651Z,22.50
2023-03-06T03:02:38.758Z,30.33
2023-03-06T03:05:08.371Z,31.00
2023-03-06T03:07:37.942Z,35.00
2023-03-06T03:10:07.940Z,30.50
2023-03-06T03:12:36.821Z,27.50
2023-03-06T03:15:07.969Z,28.50
2023-03-06T03:17:37.590Z,28.00
2023-03-06T03:20:08.477Z,25.75
2023-03-06T03:22:37.779Z,32.50
2023-03-06T03:25:08.119Z,27.25
2023-03-06T03:27:37.018Z,19.75
2023-03-06T03:30:09.427Z,27.00
2023-03-06T03:32:38.964Z,26.75
2023-03-06T03:35:10.055Z,31.50
2023-03-06T03:37:39.261Z,17.75
2023-03-06T03:40:10.326Z,34.75
2023-03-06T03:42:39.646Z,28.25
2023-03-06T03:45:12.092Z,34.50
2023-03-06T03:47:42.845Z,30.75
2023-03-06T03:50:13.674Z,33.00
2023-03-06T03:52:42.936Z,30.50
2023-03-06T03:55:12.921Z,30.00
2023-03-06T03:57:43.626Z,28.50
2023-03-06T04:00:16.764Z,32.75
2023-03-06T04:02:55.943Z,31.00
2023-03-06T04:05:35.380Z,28.75
2023-03-06T04:08:06.675Z,31.75
2023-03-06T04:10:39.469Z,29.00
2023-03-06T04:13:10.324Z,29.25
2023-03-06T04:15:44.260Z,31.50
2023-03-06T04:18:13.853Z,29.00
2023-03-06T04:20:42.410Z,27.00
2023-03-06T04:23:12.569Z,27.50
2023-03-06T04:25:41.679Z,26.25
2023-03-06T04:28:14.042Z,25.00
2023-03-06T04:30:44.590Z,32.75
2023-03-06T04:33:13.474Z,28.25
2023-03-06T04:35:43.701Z,30.00
2023-03-06T04:38:18.735Z,16.50
2023-03-06T04:40:49.731Z,29.00
2023-03-06T04:43:19.005Z,24.25
2023-03-06T04:45:49.046Z,17.00
2023-03-06T04:48:19.780Z,26.25
2023-03-06T04:50:48.351Z,39.75
2023-03-06T04:53:19.629Z,26.50
2023-03-06T04:55:48.699Z,31.75
2023-03-06T04:58:17.555Z,27.25
2023-03-06T05:00:46.333Z,27.25
2023-03-06T05:03:16.601Z,31.50
2023-03-06T05:05:45.160Z,44.50
2023-03-06T05:08:15.960Z,38.00
2023-03-06T05:10:45.458Z,28.00
2023-03-06T05:13:14.342Z,28.75
2023-03-06T05:15:43.230Z,28.00
2023-03-06T05:18:11.957Z,31.00
2023-03-06T05:20:41.892Z,35.75
2023-03-06T05:23:10.889Z,32.75
2023-03-06T05:25:40.730Z,28.00
2023-03-06T05:28:10.274Z,30.75
2023-03-06T05:30:39.627Z,29.75
2023-03-06T05:33:08.710Z,23.50
2023-03-06T05:35:37.285Z,32.75
2023-03-06T05:38:08.097Z,67.75
2023-03-06T05:40:36.759Z,40.00
2023-03-06T05:43:06.829Z,25.50
2023-03-06T05:45:35.804Z,23.50
2023-03-06T05:48:04.884Z,25.50
2023-03-06T05:50:33.364Z,25.00
2023-03-06T05:53:02.689Z,23.75
2023-03-06T05:55:33.103Z,29.75
2023-03-06T05:58:02.140Z,23.25
2023-03-06T06:00:30.958Z,24.50
2023-03-06T06:03:01.846Z,22.50
2023-03-06T06:05:30.405Z,21.25
2023-03-06T06:07:59.301Z,25.50
2023-03-06T06:10:27.960Z,24.25
2023-03-06T06:12:59.126Z,27.25
2023-03-06T06:15:29.014Z,25.00
2023-03-06T06:17:58.391Z,29.00
2023-03-06T06:20:27.567Z,34.50
2023-03-06T06:22:56.555Z,28.75
2023-03-06T06:25:25.192Z,19.75
2023-03-06T06:27:58.072Z,27.00
2023-03-06T06:30:26.921Z,26.75
2023-03-06T06:32:56.167Z,30.00
2023-03-06T06:35:24.771Z,29.50
2023-03-06T06:37:53.804Z,29.00
2023-03-06T06:40:24.420Z,22.75
2023-03-06T06:42:54.170Z,28.25
2023-03-06T06:45:24.590Z,26.00
2023-03-06T06:47:53.816Z,26.40
2023-03-06T06:50:22.817Z,27.25
2023-03-06T06:52:51.681Z,22.25
2023-03-06T06:55:20.353Z,18.75
2023-03-06T06:57:49.403Z,21.50
2023-03-06T07:00:19.161Z,24.25
2023-03-06T07:02:51.252Z,26.75
2023-03-06T07:05:21.777Z,22.75
2023-03-06T07:07:52.027Z,24.00
2023-03-06T07:10:21.237Z,24.25
2023-03-06T07:12:50.305Z,26.00
2023-03-06T07:15:19.613Z,28.00
2023-03-06T07:17:50.676Z,25.60
2023-03-06T07:20:19.935Z,28.75
2023-03-06T07:22:51.709Z,30.00
2023-03-06T07:25:22.029Z,26.75
2023-03-06T07:27:54.430Z,24.25
2023-03-06T07:30:24.383Z,25.25
2023-03-06T07:32:55.987Z,25.25
2023-03-06T07:35:25.698Z,22.25
2023-03-06T07:38:14.739Z,29.25
2023-03-06T07:40:43.409Z,27.00
2023-03-06T07:43:19.116Z,27.25
2023-03-06T07:45:58.449Z,28.75
2023-03-06T07:48:29.655Z,27.75
2023-03-06T07:50:59.590Z,34.25
2023-03-06T07:53:29.425Z,21.25
2023-03-06T07:55:58.180Z,31.75
2023-03-06T07:58:27.199Z,31.00
2023-03-06T08:00:55.920Z,28.50
2023-03-06T08:03:24.853Z,30.00
2023-03-06T08:05:55.254Z,29.25
2023-03-06T08:08:24.185Z,29.75
2023-03-06T08:10:52.762Z,29.75
2023-03-06T08:13:22.420Z,27.25
2023-03-06T08:15:51.080Z,29.00
2023-03-06T08:18:20.027Z,29.75
2023-03-06T08:20:48.806Z,22.80
2023-03-06T08:23:19.241Z,28.25
2023-03-06T08:25:47.841Z,27.25
2023-03-06T08:28:16.722Z,27.50
2023-03-06T08:30:45.336Z,24.00
2023-03-06T08:33:14.718Z,28.50
2023-03-06T08:35:43.463Z,23.00
2023-03-06T08:38:12.873Z,25.25
2023-03-06T08:40:42.918Z,19.00
2023-03-06T08:43:14.143Z,24.20
2023-03-06T08:45:42.964Z,23.75
2023-03-06T08:48:12.002Z,17.40
2023-03-06T08:50:42.305Z,25.50
2023-03-06T08:53:11.196Z,19.80
2023-03-06T08:55:40.646Z,17.20
2023-03-06T08:58:10.951Z,18.00
2023-03-06T09:00:39.696Z,18.80
2023-03-06T09:03:09.146Z,19.20
2023-03-06T09:05:37.829Z,20.40
2023-03-06T09:08:07.224Z,20.00
2023-03-06T09:10:36.061Z,13.40
2023-03-06T09:13:04.987Z,19.40
2023-03-06T09:15:35.035Z,19.20
2023-03-06T09:18:04.626Z,20.20
2023-03-06T09:20:33.288Z,20.00
2023-03-06T09:23:02.408Z,20.80
2023-03-06T09:25:31.158Z,18.20
2023-03-06T09:28:11.398Z,23.40
2023-03-06T09:30:42.894Z,16.00
2023-03-06T09:33:14.086Z,16.00
2023-03-06T09:35:46.590Z,16.00
2023-03-06T09:38:15.631Z,15.20
2023-03-06T09:41:02.670Z,18.60
2023-03-06T09:43:35.542Z,16.40
2023-03-06T09:46:20.319Z,20.20
2023-03-06T09:49:02.887Z,18.40
2023-03-06T09:51:40.826Z,19.60
2023-03-06T09:54:14.817Z,16.80
2023-03-06T09:56:48.901Z,19.00
2023-03-06T09:59:22.101Z,17.60
2023-03-06T10:02:01.660Z,22.00
2023-03-06T10:04:37.424Z,18.00
2023-03-06T10:07:15.762Z,20.80
2023-03-06T10:09:49.592Z,21.60
2023-03-06T10:12:24.742Z,18.80
2023-03-06T10:15:09.187Z,19.20
2023-03-06T10:17:41.524Z,19.80
2023-03-06T10:20:18.702Z,17.40
2023-03-06T10:23:03.142Z,17.20
2023-03-06T10:25:41.171Z,20.80
2023-03-06T10:28:17.799Z,17.60
2023-03-06T10:30:57.653Z,19.40
2023-03-06T10:33:42.051Z,22.40
2023-03-06T10:36:15.746Z,22.00
2023-03-06T10:38:48.760Z,18.20
2023-03-06T10:41:28.997Z,22.40
2023-03-06T10:44:20.871Z,22.00
2023-03-06T10:46:52.415Z,19.25
2023-03-06T10:49:32.193Z,24.00
2023-03-06T10:52:05.481Z,21.25
2023-03-06T10:54:36.350Z,23.20
2023-03-06T10:57:26.652Z,17.00
2023-03-06T10:59:58.007Z,18.00
2023-03-06T11:02:32.848Z,25.75
2023-03-06T11:05:03.850Z,24.60
2023-03-06T11:07:34.475Z,25.00
2023-03-06T11:10:07.958Z,27.50
2023-03-06T11:12:38.998Z,24.80
2023-03-06T11:15:18.581Z,25.60
2023-03-06T11:17:57.734Z,25.75
2023-03-06T11:20:44.692Z,24.25
2023-03-06T11:23:23.370Z,26.00
2023-03-06T11:25:58.674Z,24.25
2023-03-06T11:28:32.079Z,24.40
2023-03-06T11:31:07.270Z,18.40
2023-03-06T11:33:41.090Z,20.40
2023-03-06T11:36:16.397Z,23.80
2023-03-06T11:38:50.470Z,22.80
2023-03-06T11:41:32.462Z,20.20
2023-03-06T11:44:13.517Z,18.60
2023-03-06T11:46:46.609Z,20.60
2023-03-06T11:49:23.735Z,23.20
2023-03-06T11:51:58.308Z,22.60
2023-03-06T11:54:28.323Z,17.80
2023-03-06T11:57:01.596Z,22.40
2023-03-06T11:59:53.055Z,19.60
2023-03-06T12:02:34.591Z,24.60
2023-03-06T12:05:26.071Z,18.00
2023-03-06T12:08:03.568Z,20.80
2023-03-06T12:10:39.873Z,15.80
2023-03-06T12:13:28.105Z,21.60
2023-03-06T12:16:13.607Z,28.25
2023-03-06T12:18:53.679Z,16.60
2023-03-06T12:21:33.249Z,29.00
2023-03-06T12:24:32.056Z,24.00
2023-03-06T12:27:13.966Z,24.25
2023-03-06T12:29:57.118Z,31.00
2023-03-06T12:32:40.327Z,29.50
2023-03-06T12:35:40.045Z,20.00
2023-03-06T12:38:26.276Z,21.20
2023-03-06T12:41:09.207Z,18.80
2023-03-06T12:44:04.437Z,18.20
2023-03-06T12:46:42.894Z,20.60
2023-03-06T12:49:31.142Z,21.40
2023-03-06T12:52:02.171Z,18.60
2023-03-06T12:54:34.566Z,17.20
2023-03-06T12:57:08.692Z,19.40
2023-03-06T12:59:44.655Z,19.60
2023-03-06T13:02:50.147Z,17.00
2023-03-06T13:05:43.297Z,20.00
2023-03-06T13:08:39.322Z,18.20
2023-03-06T13:11:31.986Z,9.00
2023-03-06T13:14:23.106Z,17.20
2023-03-06T13:16:52.528Z,15.00
2023-03-06T13:19:23.239Z,18.80
2023-03-06T13:22:16.534Z,18.00
2023-03-06T13:24:45.596Z,18.60
2023-03-06T13:27:48.072Z,17.20
2023-03-06T13:30:27.255Z,15.40
2023-03-06T13:32:57.471Z,14.20
2023-03-06T13:35:54.663Z,15.20
2023-03-06T13:38:38.937Z,21.00
2023-03-06T13:42:01.122Z,21.20
2023-03-06T13:44:50.882Z,20.20
2023-03-06T13:47:59.131Z,17.60
2023-03-06T13:50:41.238Z,19.00
2023-03-06T13:53:50.333Z,19.60
2023-03-06T13:56:49.343Z,17.00
2023-03-06T14:00:03.031Z,15.40
2023-03-06T14:03:14.321Z,15.80
2023-03-06T14:05:44.512Z,11.20
2023-03-06T14:08:17.418Z,19.80
2023-03-06T14:10:47.816Z,19.40
2023-03-06T14:13:19.753Z,18.40
2023-03-06T14:15:50.548Z,22.00
2023-03-06T14:18:24.943Z,21.20
2023-03-06T14:20:57.853Z,19.80
2023-03-06T14:23:29.903Z,18.40
2023-03-06T14:26:03.972Z,21.20
2023-03-06T14:28:35.822Z,18.40
2023-03-06T14:31:08.037Z,18.00
2023-03-06T14:33:45.158Z,17.40
2023-03-06T14:36:16.696Z,19.40
2023-03-06T14:38:49.736Z,17.60
2023-03-06T14:41:27.648Z,18.60
2023-03-06T14:44:17.836Z,24.50
2023-03-06T14:46:50.016Z,20.00
2023-03-06T14:49:22.741Z,23.40
2023-03-06T14:51:53.855Z,19.40
2023-03-06T14:54:27.666Z,19.20
2023-03-06T14:57:02.828Z,16.80
2023-03-06T14:59:48.361Z,15.00
2023-03-06T15:02:22.788Z,17.40
2023-03-06T15:04:56.325Z,18.00
2023-03-06T15:07:28.646Z,23.40
2023-03-06T15:09:59.232Z,16.00
2023-03-06T15:12:37.117Z,12.80
2023-03-06T15:15:26.690Z,14.00
2023-03-06T15:17:56.877Z,14.60
2023-03-06T15:20:43.613Z,17.20
2023-03-06T15:23:19.178Z,22.20
2023-03-06T15:25:54.232Z,20.80
2023-03-06T15:28:34.746Z,20.00
2023-03-06T15:31:22.002Z,15.80
2023-03-06T15:34:23.756Z,19.20
2023-03-06T15:36:56.771Z,18.40
2023-03-06T15:39:35.318Z,23.00
2023-03-06T15:42:15.953Z,17.00
2023-03-06T15:44:49.032Z,21.20
2023-03-06T15:47:19.088Z,19.00
2023-03-06T15:49:51.896Z,22.40
2023-03-06T15:52:23.027Z,18.40
2023-03-06T15:54:51.831Z,18.60
2023-03-06T15:57:25.224Z,22.60
2023-03-06T15:59:56.106Z,22.00
2023-03-06T16:02:25.834Z,17.40
2023-03-06T16:04:54.633Z,17.40
2023-03-06T16:07:26.801Z,19.40
2023-03-06T16:09:57.139Z,22.20
2023-03-06T16:12:32.652Z,19.80
2023-03-06T16:15:02.849Z,22.40
2023-03-06T16:17:31.663Z,16.00
2023-03-06T16:20:00.344Z,31.25
2023-03-06T16:22:30.733Z,33.25
2023-03-06T16:24:59.509Z,33.50
2023-03-06T16:27:29.079Z,35.00
2023-03-06T16:29:57.629Z,44.00
2023-03-06T16:32:28.683Z,40.00
2023-03-06T16:34:57.909Z,42.50
2023-03-06T16:37:26.892Z,52.75
2023-03-06T16:39:57.007Z,54.50
2023-03-06T16:42:26.183Z,59.33
2023-03-06T16:44:54.929Z,57.33
2023-03-06T16:47:23.924Z,52.00
2023-03-06T16:49:57.472Z,47.00
2023-03-06T16:52:26.917Z,48.25
2023-03-06T16:54:57.101Z,44.75
2023-03-06T16:57:27.272Z,43.00
2023-03-06T16:59:56.190Z,38.25
2023-03-06T17:02:25.270Z,40.25
2023-03-06T17:04:54.123Z,42.00
2023-03-06T17:07:23.710Z,36.00
2023-03-06T17:10:16.823Z,35.50
2023-03-06T17:12:45.880Z,38.25
2023-03-06T17:15:14.574Z,37.75
2023-03-06T17:17:43.662Z,41.00
2023-03-06T17:20:13.927Z,57.33
2023-03-06T17:22:42.933Z,49.25
2023-03-06T17:25:13.070Z,43.75
2023-03-06T17:27:42.120Z,42.00
2023-03-06T17:30:12.145Z,38.25
2023-03-06T17:32:41.253Z,37.00
2023-03-06T17:35:11.464Z,40.25
2023-03-06T17:37:40.637Z,37.25
2023-03-06T17:40:11.381Z,39.00
2023-03-06T17:42:41.695Z,39.00
2023-03-06T17:45:12.683Z,38.50
2023-03-06T17:47:42.263Z,36.50
2023-03-06T17:50:12.218Z,32.50
2023-03-06T17:52:41.174Z,36.00
2023-03-06T17:55:10.727Z,28.75
2023-03-06T17:57:41.346Z,36.75
2023-03-06T18:00:11.983Z,35.50
2023-03-06T18:02:45.704Z,38.25
2023-03-06T18:05:14.660Z,38.25
2023-03-06T18:07:43.966Z,40.00
2023-03-06T18:10:12.695Z,39.25
2023-03-06T18:12:43.602Z,31.00
2023-03-06T18:15:12.801Z,41.75
2023-03-06T18:17:41.966Z,38.50
2023-03-06T18:20:12.103Z,37.75
2023-03-06T18:22:41.104Z,36.75
2023-03-06T18:25:10.538Z,37.00
2023-03-06T18:27:39.581Z,34.75
2023-03-06T18:30:11.490Z,35.25
2023-03-06T18:32:40.646Z,34.25
2023-03-06T18:35:10.642Z,36.25
2023-03-06T18:37:39.571Z,32.25
2023-03-06T18:40:09.728Z,35.00
2023-03-06T18:42:38.710Z,32.50
2023-03-06T18:45:10.326Z,37.00
2023-03-06T18:47:39.596Z,40.50
2023-03-06T18:50:11.651Z,38.75
2023-03-06T18:52:40.537Z,37.00
2023-03-06T18:55:09.896Z,38.50
2023-03-06T18:57:39.730Z,38.25
2023-03-06T19:00:13.464Z,35.25
2023-03-06T19:02:42.989Z,37.00
2023-03-06T19:05:11.966Z,37.00
2023-03-06T19:07:41.185Z,37.25
2023-03-06T19:10:11.391Z,27.75
2023-03-06T19:12:40.350Z,26.00
2023-03-06T19:15:11.201Z,7.25
2023-03-06T19:17:40.263Z,34.25
2023-03-06T19:20:10.401Z,30.25
2023-03-06T19:22:39.532Z,33.75
2023-03-06T19:25:09.439Z,31.75
2023-03-06T19:27:39.465Z,36.50
2023-03-06T19:30:11.425Z,38.25
2023-03-06T19:32:40.929Z,33.75
2023-03-06T19:35:11.123Z,36.75
2023-03-06T19:37:40.273Z,39.00
2023-03-06T19:40:10.515Z,33.00
2023-03-06T19:42:39.839Z,36.75
2023-03-06T19:45:10.939Z,29.00
2023-03-06T19:47:39.951Z,28.75
2023-03-06T19:50:09.903Z,26.50
2023-03-06T19:52:39.471Z,25.00
2023-03-06T19:55:09.926Z,22.80
2023-03-06T19:57:39.065Z,19.00
2023-03-06T20:00:11.525Z,18.80
2023-03-06T20:02:44.218Z,20.20
2023-03-06T20:05:12.847Z,21.40
2023-03-06T20:07:41.625Z,22.20
2023-03-06T20:10:11.820Z,24.75
2023-03-06T20:12:40.877Z,15.60
2023-03-06T20:15:11.906Z,3.75
2023-03-06T20:17:41.222Z,22.80
2023-03-06T20:20:11.975Z,21.40
2023-03-06T20:22:41.019Z,26.00
2023-03-06T20:25:10.250Z,27.50
2023-03-06T20:27:39.749Z,25.25
2023-03-06T20:30:11.333Z,23.00
2023-03-06T20:32:40.583Z,24.50
2023-03-06T20:35:09.836Z,24.75
2023-03-06T20:37:41.670Z,25.75
2023-03-06T20:40:11.746Z,19.20
2023-03-06T20:42:42.321Z,25.00
2023-03-06T20:45:12.827Z,23.00
2023-03-06T20:47:47.443Z,24.25
2023-03-06T20:50:16.981Z,29.00
2023-03-06T20:52:45.956Z,28.25
2023-03-06T20:55:14.649Z,29.00
2023-03-06T20:57:43.748Z,32.50
2023-03-06T21:00:14.918Z,34.75
2023-03-06T21:02:43.817Z,36.00
2023-03-06T21:05:12.998Z,35.00
2023-03-06T21:07:42.040Z,33.00
2023-03-06T21:10:11.666Z,37.00
2023-03-06T21:12:40.702Z,33.75
2023-03-06T21:15:10.225Z,28.00
2023-03-06T21:17:40.439Z,28.25
2023-03-06T21:20:10.582Z,29.25
2023-03-06T21:22:39.625Z,29.25
2023-03-06T21:25:08.543Z,30.25
2023-03-06T21:27:37.489Z,29.50
2023-03-06T21:30:07.456Z,24.50
2023-03-06T21:32:36.553Z,29.00
2023-03-06T21:35:07.389Z,34.50
2023-03-06T21:37:36.312Z,29.50
2023-03-06T21:40:06.721Z,33.50
2023-03-06T21:42:37.198Z,27.00
2023-03-06T21:45:08.358Z,24.75
2023-03-06T21:47:38.835Z,30.25
2023-03-06T21:50:12.241Z,30.75
2023-03-06T21:52:41.611Z,31.25
2023-03-06T21:55:11.135Z,28.00
2023-03-06T21:57:40.079Z,32.75
2023-03-06T22:00:12.041Z,29.00
2023-03-06T22:02:41.135Z,31.75
2023-03-06T22:05:11.389Z,33.75
2023-03-06T22:07:40.967Z,30.75
2023-03-06T22:10:14.304Z,30.33
2023-03-06T22:12:45.946Z,29.25
2023-03-06T22:15:14.506Z,33.25
2023-03-06T22:17:43.519Z,37.75
2023-03-06T22:20:14.097Z,35.50
2023-03-06T22:22:43.725Z,37.25
2023-03-06T22:25:12.656Z,38.25
2023-03-06T22:27:41.931Z,33.00
2023-03-06T22:30:11.596Z,35.00
2023-03-06T22:32:40.538Z,33.50
2023-03-06T22:35:09.924Z,39.50
2023-03-06T22:37:40.136Z,38.00
2023-03-06T22:40:09.886Z,38.25
2023-03-06T22:42:38.646Z,39.00
2023-03-06T22:45:08.418Z,38.00
2023-03-06T22:47:37.512Z,39.50
2023-03-06T22:50:06.717Z,37.25
2023-03-06T22:52:35.737Z,36.50
2023-03-06T22:55:07.216Z,42.75
2023-03-06T22:57:36.109Z,43.75
2023-03-06T23:00:09.212Z,45.75
2023-03-06T23:02:38.754Z,44.25
2023-03-06T23:05:07.670Z,44.75
2023-03-06T23:07:36.614Z,47.00
2023-03-06T23:10:07.952Z,43.25
2023-03-06T23:12:55.063Z,47.25
2023-03-06T23:15:41.843Z,48.00
2023-03-06T23:18:29.553Z,43.75
2023-03-06T23:21:18.146Z,49.50
2023-03-06T23:24:06.958Z,46.50
2023-03-06T23:26:37.136Z,40.75
2023-03-06T23:29:05.872Z,44.75
2023-03-06T23:31:34.387Z,44.75
2023-03-06T23:34:04.038Z,41.25
2023-03-06T23:36:33.065Z,41.75
2023-03-06T23:39:02.376Z,46.00
2023-03-06T23:41:31.419Z,44.75
2023-03-06T23:44:01.887Z,46.00
2023-03-06T23:46:30.409Z,45.25
2023-03-06T23:48:59.212Z,45.25
2023-03-06T23:51:27.731Z,46.75
2023-03-06T23:53:58.739Z,49.50
2023-03-06T23:56:28.938Z,44.75
2023-03-06T23:58:57.793Z,44.50
